Skelton, AK

8:40 PM AKDT on September 18, 2014 (GMT -0800)
Eureka | Change Station
CLOSE
Current Station
Airport
Location: Eureka,
Elevation: 3287 ft
Nearby Weather Stations

Elev 3287 ft 61.93 °N, 147.17 °W | Updated 4 minutes ago

Overcast
Overcast
39 °F
Feels Like 37 °F
N
4
Wind Variable Wind from East

Today
High -- | Low -- °F
--% Chance of Precip.
Yesterday
High -- | Low -- °F
Precip. -- in
7:22 AM 8:01 PM
Waning Crescent, 22% visible
Pressure 29.02 in
Visibility 10.0 miles
Clouds Mostly Cloudy 5000 ft
Mostly Cloudy 6500 ft
Overcast 7500 ft
Windchill 37 °F
Dew Point 37 °F
Humidity 93%
Rainfall 0.07 in
Snow Depth 0 in , 0 in , 0 in
UV 0 out of 12
Pollen Not available.
Air Quality Not available.
Flu Activity Not available.
METAR PAZK 190436Z AUTO 10003KT 10SM BKN050 BKN065 OVC075 04/03 A2902 RMK AO1

More Conditions Fewer Conditions

Pressure 29.02 in
Visibility 10.0 miles
Clouds Mostly Cloudy 5000 ft
Mostly Cloudy 6500 ft
Overcast 7500 ft
Windchill 37 °F
Dew Point 37 °F
Humidity 93%
Rainfall 0.07 in
Snow Depth 0 in , 0 in , 0 in
UV 0 out of 12
Pollen Not available.
Air Quality Not available.
Flu Activity Not available.
METAR PAZK 190436Z AUTO 10003KT 10SM BKN050 BKN065 OVC075 04/03 A2902 RMK AO1

More Conditions Fewer Conditions

10-Day Weather Forecast

Almanac

Astronomy

Sep. 18, 2014 Rise Set
Actual Time 7:22 AM AKDT 8:01 PM AKDT
Civil Twilight 6:37 AM AKDT 8:45 PM AKDT
Nautical Twilight 5:42 AM AKDT 9:40 PM AKDT
Astronomical Twilight 4:40 AM AKDT 10:42 PM AKDT
Moon 1:12 AM AKDT (9/18) 6:00 PM AKDT (9/18)
Length of Visible Light 14h 07m
Length of Day
12h 38m
Tomorrow will be 5m 50s shorter.
Waning Crescent, 22% of the Moon is Illuminated
Sep 19
Waning Crescent
Sep 24
New
Oct 1
First Quarter
Oct 8
Full
Oct 15
Last Quarter

Yesterday's Extremes

State Highs State Lows

Community

WunderPhotos

Upload Photos

1,754,558 photos uploaded!

Nearby

Snow Depth

Station Depth Elevation
Port Graham 0 in 300 ft
Eagle Summit 0 in 3650 ft
Long Lake 0 in 820 ft
Granite Creek 0 in 1240 ft
Munson Ridge 1 in 3100 ft

Earthquake Activity

City Distance Mag. Time & Date
No recent earthquake activity has been reported nearby.
Minimum magnitude displayed is 2.5.

Coastal Water Temperatures

Place Temperature
No Stations Reporting

Nearby Weather Stations